createdAt,value
2018-10-03T00:00:35.233Z,79.10
2018-10-03T00:01:35.222Z,78.91
2018-10-03T00:02:35.224Z,79.00
2018-10-03T00:03:35.200Z,79.48
2018-10-03T00:04:35.190Z,79.67
2018-10-03T00:05:35.179Z,79.38
2018-10-03T00:06:35.170Z,79.86
2018-10-03T00:07:35.157Z,80.24
2018-10-03T00:08:35.149Z,80.43
2018-10-03T00:09:35.136Z,80.53
2018-10-03T00:10:35.126Z,80.43
2018-10-03T00:11:35.114Z,80.33
2018-10-03T00:12:35.103Z,80.72
2018-10-03T00:13:35.093Z,80.62
2018-10-03T00:14:35.082Z,80.62
2018-10-03T00:15:35.071Z,81.20
2018-10-03T00:16:35.062Z,81.20
2018-10-03T00:17:35.050Z,81.10
2018-10-03T00:18:35.040Z,81.20
2018-10-03T00:19:35.029Z,80.72
2018-10-03T00:20:35.017Z,81.10
2018-10-03T00:21:35.006Z,79.96
2018-10-03T00:22:34.997Z,79.67
2018-10-03T00:23:34.984Z,80.33
2018-10-03T00:24:34.974Z,80.43
2018-10-03T00:25:34.963Z,80.91
2018-10-03T00:26:34.952Z,80.53
2018-10-03T00:27:34.942Z,80.15
2018-10-03T00:28:34.930Z,80.62
2018-10-03T00:29:34.920Z,80.43
2018-10-03T00:30:34.909Z,80.72
2018-10-03T00:31:34.897Z,80.24
2018-10-03T00:32:34.887Z,80.91
2018-10-03T00:33:34.876Z,81.20
2018-10-03T00:34:34.867Z,81.67
2018-10-03T00:35:34.853Z,81.44
2018-10-03T00:36:34.848Z,80.39
2018-10-03T00:37:34.842Z,80.53
2018-10-03T00:38:34.821Z,80.30
2018-10-03T00:39:34.810Z,79.91
2018-10-03T00:40:34.800Z,80.39
2018-10-03T00:41:34.788Z,80.58
2018-10-03T00:42:34.777Z,81.44
2018-10-03T00:43:34.767Z,81.38
2018-10-03T00:44:34.755Z,81.10
2018-10-03T00:45:34.745Z,81.29
2018-10-03T00:46:34.738Z,80.20
2018-10-03T00:47:34.722Z,81.10
2018-10-03T00:48:34.712Z,82.68
2018-10-03T00:49:34.700Z,83.48
2018-10-03T00:50:34.692Z,83.87
2018-10-03T00:51:34.677Z,84.06
2018-10-03T00:52:34.672Z,84.59
2018-10-03T00:53:34.656Z,84.49
2018-10-03T00:54:34.644Z,84.69
2018-10-03T00:55:34.633Z,84.69
2018-10-03T00:56:34.622Z,85.54
2018-10-03T00:57:34.614Z,85.64
2018-10-03T00:58:34.601Z,85.93
2018-10-03T00:59:34.588Z,85.83
2018-10-03T01:00:34.577Z,86.40
2018-10-03T01:01:34.566Z,86.21
2018-10-03T01:02:34.556Z,86.21
2018-10-03T01:03:34.545Z,86.40
2018-10-03T01:04:34.533Z,86.98
2018-10-03T01:05:34.525Z,87.83
2018-10-03T01:06:34.512Z,87.54
2018-10-03T01:07:34.499Z,86.49
2018-10-03T01:08:34.489Z,86.78
2018-10-03T01:09:34.477Z,87.16
2018-10-03T01:10:34.466Z,86.88
2018-10-03T01:11:34.454Z,87.45
2018-10-03T01:12:34.444Z,86.49
2018-10-03T01:13:34.432Z,86.88
2018-10-03T01:14:34.422Z,87.26
2018-10-03T01:15:34.412Z,87.54
2018-10-03T01:16:34.399Z,88.21
2018-10-03T01:17:34.392Z,88.78
2018-10-03T01:18:34.380Z,89.17
2018-10-03T01:19:34.365Z,89.36
2018-10-03T01:20:34.353Z,89.93
2018-10-03T01:21:34.342Z,90.31
2018-10-03T01:22:34.333Z,90.50
2018-10-03T01:23:34.319Z,90.22
2018-10-03T01:24:34.310Z,90.50
2018-10-03T01:25:34.297Z,90.93
2018-10-03T01:26:34.287Z,91.36
2018-10-03T01:27:34.274Z,91.41
2018-10-03T01:28:34.263Z,91.69
2018-10-03T01:29:34.253Z,91.74
2018-10-03T01:30:34.241Z,91.27
2018-10-03T01:31:34.229Z,90.84
2018-10-03T01:32:34.217Z,91.31
2018-10-03T01:33:34.208Z,89.36
2018-10-03T01:34:34.195Z,89.36
2018-10-03T01:35:34.184Z,90.22
2018-10-03T01:36:34.173Z,88.78
2018-10-03T01:37:34.162Z,88.21
2018-10-03T01:38:34.151Z,88.88
2018-10-03T01:39:34.139Z,88.88
2018-10-03T01:40:34.129Z,89.36
2018-10-03T01:41:34.116Z,90.31
2018-10-03T01:42:34.105Z,90.31
2018-10-03T01:43:34.092Z,90.22
2018-10-03T01:44:34.082Z,89.69
2018-10-03T01:45:34.071Z,89.89
2018-10-03T01:46:34.060Z,90.45
2018-10-03T01:47:34.047Z,90.12
2018-10-03T01:48:34.038Z,90.64
2018-10-03T01:49:34.024Z,91.50
2018-10-03T01:50:34.017Z,91.98
2018-10-03T01:51:34.001Z,92.74
2018-10-03T01:52:33.990Z,93.03
2018-10-03T01:53:33.980Z,93.70
2018-10-03T01:54:33.968Z,94.27
2018-10-03T01:55:33.956Z,94.37
2018-10-03T01:56:33.944Z,94.65
2018-10-03T01:57:33.933Z,93.70
2018-10-03T01:58:33.922Z,94.46
2018-10-03T01:59:33.910Z,95.22
2018-10-03T02:00:33.899Z,95.89
2018-10-03T02:01:33.887Z,96.08
2018-10-03T02:02:33.876Z,95.79
2018-10-03T02:03:33.887Z,95.32
2018-10-03T02:04:33.853Z,95.79
2018-10-03T02:05:33.841Z,95.32
2018-10-03T02:06:33.830Z,95.98
2018-10-03T02:07:33.818Z,97.80
2018-10-03T02:08:33.806Z,96.27
2018-10-03T02:09:33.795Z,95.22
2018-10-03T02:10:33.784Z,93.32
2018-10-03T02:11:33.772Z,93.22
2018-10-03T02:12:33.760Z,94.17
2018-10-03T02:13:33.749Z,93.03
2018-10-03T02:14:33.742Z,94.56
2018-10-03T02:15:33.726Z,93.98
2018-10-03T02:16:33.715Z,93.22
2018-10-03T02:17:33.704Z,94.17
2018-10-03T02:18:33.692Z,92.84
2018-10-03T02:19:33.679Z,92.17
2018-10-03T02:20:33.670Z,92.36
2018-10-03T02:21:33.662Z,92.46
2018-10-03T02:22:33.650Z,92.36
2018-10-03T02:23:33.634Z,93.60
2018-10-03T02:24:33.627Z,92.84
2018-10-03T02:25:33.611Z,92.74
2018-10-03T02:26:33.600Z,93.60
2018-10-03T02:27:33.588Z,94.46
2018-10-03T02:28:33.577Z,95.61
2018-10-03T02:29:33.565Z,95.89
2018-10-03T02:30:33.555Z,96.08
2018-10-03T02:31:33.542Z,96.08
2018-10-03T02:32:33.531Z,96.94
2018-10-03T02:33:33.521Z,97.13
2018-10-03T02:34:33.518Z,97.22
2018-10-03T02:35:33.496Z,96.65
2018-10-03T02:36:33.485Z,96.46
2018-10-03T02:37:33.474Z,96.56
2018-10-03T02:38:33.463Z,97.03
2018-10-03T02:39:33.450Z,95.41
2018-10-03T02:40:33.439Z,95.27
2018-10-03T02:41:33.428Z,95.70
2018-10-03T02:42:33.417Z,95.98
2018-10-03T02:43:33.404Z,95.98
2018-10-03T02:44:33.393Z,95.70
2018-10-03T02:45:33.382Z,94.56
2018-10-03T02:46:33.372Z,95.32
2018-10-03T02:47:33.359Z,95.41
2018-10-03T02:48:33.348Z,96.17
2018-10-03T02:49:33.337Z,95.98
2018-10-03T02:50:33.326Z,96.75
2018-10-03T02:51:33.315Z,97.22
2018-10-03T02:52:33.303Z,97.99
2018-10-03T02:53:33.293Z,97.99
2018-10-03T02:54:33.280Z,98.08
2018-10-03T02:55:33.267Z,98.36
2018-10-03T02:56:33.256Z,98.56
2018-10-03T02:57:33.245Z,98.94
2018-10-03T02:58:33.234Z,98.85
2018-10-03T02:59:33.221Z,99.99
2018-10-03T03:00:33.210Z,99.70
2018-10-03T03:01:33.286Z,99.89
2018-10-03T03:02:33.189Z,99.99
2018-10-03T03:03:33.175Z,99.99
2018-10-03T03:04:33.168Z,99.99
2018-10-03T03:05:33.163Z,99.99
2018-10-03T03:06:33.144Z,99.99
2018-10-03T03:07:33.129Z,99.99
2018-10-03T03:08:33.197Z,99.99
2018-10-03T03:09:33.109Z,99.99
2018-10-03T03:10:33.107Z,99.99
2018-10-03T03:11:33.084Z,99.99
2018-10-03T03:12:33.073Z,99.99
2018-10-03T03:13:33.064Z,99.99
2018-10-03T03:14:33.053Z,99.99
2018-10-03T03:15:33.039Z,99.99
2018-10-03T03:16:33.027Z,99.99
2018-10-03T03:17:33.017Z,99.99
2018-10-03T03:18:33.004Z,99.99
2018-10-03T03:19:32.992Z,99.99
2018-10-03T03:20:32.984Z,99.99
2018-10-03T03:21:32.973Z,99.99
2018-10-03T03:22:32.960Z,99.99
2018-10-03T03:23:32.945Z,99.99
2018-10-03T03:24:32.936Z,99.99
2018-10-03T03:25:32.923Z,99.99
2018-10-03T03:26:32.917Z,99.99
2018-10-03T03:27:32.899Z,99.99
2018-10-03T03:28:32.889Z,99.99
2018-10-03T03:29:32.879Z,99.99
2018-10-03T03:30:32.867Z,99.99
2018-10-03T03:31:32.856Z,99.99
2018-10-03T03:32:32.852Z,99.99
2018-10-03T03:33:32.832Z,99.99
2018-10-03T03:34:32.822Z,99.99
2018-10-03T03:35:32.815Z,99.99
2018-10-03T03:36:32.798Z,99.99
2018-10-03T03:37:32.786Z,99.99
2018-10-03T03:38:32.777Z,99.99
2018-10-03T03:39:32.764Z,99.99
2018-10-03T03:40:32.751Z,99.99
2018-10-03T03:41:32.742Z,99.99
2018-10-03T03:42:32.728Z,99.99
2018-10-03T03:43:32.723Z,99.99
2018-10-03T03:44:32.705Z,99.99
2018-10-03T03:45:32.694Z,99.99
2018-10-03T03:46:32.683Z,99.99
2018-10-03T03:47:32.675Z,99.99
2018-10-03T03:48:32.661Z,99.99
2018-10-03T03:49:32.649Z,99.99
2018-10-03T03:50:32.639Z,99.99
2018-10-03T03:51:32.625Z,99.99
2018-10-03T03:52:32.617Z,99.99
2018-10-03T03:53:32.604Z,99.99
2018-10-03T03:54:32.592Z,99.99
2018-10-03T03:55:32.581Z,99.99
2018-10-03T03:56:32.569Z,99.99
2018-10-03T03:57:32.557Z,99.99
2018-10-03T03:58:32.546Z,99.99
2018-10-03T03:59:32.536Z,99.99
2018-10-03T04:00:32.523Z,99.99
2018-10-03T04:01:32.512Z,99.99
2018-10-03T04:02:32.502Z,99.99
2018-10-03T04:03:32.490Z,99.99
2018-10-03T04:04:32.480Z,99.99
2018-10-03T04:05:32.468Z,99.99
2018-10-03T04:06:32.456Z,99.99
2018-10-03T04:07:32.447Z,99.99
2018-10-03T04:08:32.432Z,99.99
2018-10-03T04:09:32.421Z,99.99
2018-10-03T04:10:32.411Z,99.99
2018-10-03T04:11:32.399Z,99.99
2018-10-03T04:12:32.387Z,99.99
2018-10-03T04:13:32.376Z,99.99
2018-10-03T04:14:32.367Z,99.99
2018-10-03T04:15:32.353Z,99.99
2018-10-03T04:16:32.343Z,99.99
2018-10-03T04:17:32.331Z,99.99
2018-10-03T04:18:32.320Z,99.99
2018-10-03T04:19:32.308Z,99.99
2018-10-03T04:20:32.295Z,99.99
2018-10-03T04:21:32.283Z,99.99
2018-10-03T04:22:32.274Z,99.99
2018-10-03T04:23:32.261Z,99.99
2018-10-03T04:24:32.249Z,99.99
2018-10-03T04:25:32.238Z,99.99
2018-10-03T04:26:32.229Z,99.99
2018-10-03T04:27:32.215Z,99.99
2018-10-03T04:28:32.203Z,99.99
2018-10-03T04:29:32.198Z,99.99
2018-10-03T04:30:32.182Z,99.99
2018-10-03T04:31:32.171Z,99.99
2018-10-03T04:32:32.162Z,99.99
2018-10-03T04:33:32.150Z,99.99
2018-10-03T04:34:32.139Z,99.99
2018-10-03T04:35:32.180Z,99.99
2018-10-03T04:36:32.117Z,99.99
2018-10-03T04:37:32.106Z,99.99
2018-10-03T04:38:32.095Z,99.99
2018-10-03T04:39:32.085Z,99.99
2018-10-03T04:40:32.071Z,99.99
2018-10-03T04:41:32.060Z,99.99
2018-10-03T04:42:32.049Z,99.37
2018-10-03T04:43:32.037Z,97.85
2018-10-03T04:44:32.029Z,97.46
2018-10-03T04:45:32.014Z,97.75
2018-10-03T04:46:32.003Z,97.46
2018-10-03T04:47:31.991Z,96.70
2018-10-03T04:48:31.980Z,96.03
2018-10-03T04:49:31.970Z,96.80
2018-10-03T04:50:31.958Z,98.80
2018-10-03T04:51:31.944Z,99.99
2018-10-03T04:52:31.935Z,99.99
2018-10-03T04:53:31.925Z,99.75
2018-10-03T04:54:31.919Z,99.37
2018-10-03T04:55:31.901Z,99.75
2018-10-03T04:56:31.890Z,99.99
2018-10-03T04:57:31.878Z,99.99
2018-10-03T04:58:31.867Z,99.99
2018-10-03T04:59:31.855Z,99.99
2018-10-03T05:00:31.843Z,99.99
2018-10-03T05:01:31.832Z,99.99
2018-10-03T05:02:31.821Z,99.99
2018-10-03T05:03:31.810Z,99.99
2018-10-03T05:04:31.797Z,99.99
2018-10-03T05:05:31.786Z,99.99
2018-10-03T05:06:31.775Z,99.99
2018-10-03T05:07:31.764Z,99.99
2018-10-03T05:08:31.752Z,99.99
2018-10-03T05:09:31.743Z,99.99
2018-10-03T05:10:31.730Z,99.99
2018-10-03T05:11:31.718Z,99.99
2018-10-03T05:12:31.707Z,99.99
2018-10-03T05:13:31.696Z,99.99
2018-10-03T05:14:31.684Z,99.99
2018-10-03T05:15:31.672Z,99.99
2018-10-03T05:16:31.661Z,99.99
2018-10-03T05:17:31.652Z,99.99
2018-10-03T05:18:31.639Z,99.99
2018-10-03T05:19:31.626Z,99.99
2018-10-03T05:20:31.615Z,99.99
2018-10-03T05:21:31.604Z,99.99
2018-10-03T05:22:31.593Z,99.99
2018-10-03T05:23:31.581Z,99.99
2018-10-03T05:24:31.571Z,99.99
2018-10-03T05:25:31.557Z,99.99
2018-10-03T05:26:31.547Z,99.99
2018-10-03T05:27:31.534Z,99.99
2018-10-03T05:28:31.523Z,99.99
2018-10-03T05:29:31.514Z,99.99
2018-10-03T05:30:31.502Z,99.99
2018-10-03T05:31:31.490Z,99.99
2018-10-03T05:32:31.485Z,99.99
2018-10-03T05:33:31.467Z,99.99
2018-10-03T05:34:31.455Z,99.99
2018-10-03T05:35:31.443Z,99.99
2018-10-03T05:36:31.438Z,99.99
2018-10-03T05:37:31.421Z,99.99
2018-10-03T05:38:31.413Z,99.99
2018-10-03T05:39:31.414Z,99.99
2018-10-03T05:40:31.386Z,99.99
2018-10-03T05:41:31.375Z,99.99
2018-10-03T05:42:31.364Z,99.99
2018-10-03T05:43:31.351Z,99.99
2018-10-03T05:44:31.341Z,99.99
2018-10-03T05:45:31.329Z,99.99
2018-10-03T05:46:31.319Z,99.99
2018-10-03T05:47:31.306Z,98.90
2018-10-03T05:48:31.398Z,99.37
2018-10-03T05:49:31.283Z,99.46
2018-10-03T05:50:31.273Z,99.95
2018-10-03T05:51:31.260Z,99.99
2018-10-03T05:52:31.249Z,99.99
2018-10-03T05:53:31.237Z,99.99
2018-10-03T05:54:31.235Z,99.99
2018-10-03T05:55:31.214Z,99.99
2018-10-03T05:56:31.203Z,99.99
2018-10-03T05:57:31.192Z,99.99
2018-10-03T05:58:31.181Z,99.85
2018-10-03T05:59:31.168Z,99.85
2018-10-03T06:01:31.146Z,99.99
2018-10-03T06:02:31.135Z,99.99
2018-10-03T06:03:31.123Z,99.99
2018-10-03T06:04:31.112Z,99.99
2018-10-03T06:05:31.101Z,99.56
2018-10-03T06:06:31.089Z,99.75
2018-10-03T06:07:31.077Z,99.18
2018-10-03T06:08:31.066Z,98.42
2018-10-03T06:09:31.054Z,98.51
2018-10-03T06:10:31.043Z,99.08
2018-10-03T06:11:31.034Z,98.99
2018-10-03T06:12:31.020Z,98.61
2018-10-03T06:13:31.009Z,97.94
2018-10-03T06:14:30.998Z,99.08
2018-10-03T06:15:30.986Z,98.70
2018-10-03T06:16:31.028Z,98.51
2018-10-03T06:17:30.963Z,97.56
2018-10-03T06:18:30.955Z,97.27
2018-10-03T06:19:30.940Z,96.89
2018-10-03T06:20:30.929Z,97.27
2018-10-03T06:21:30.918Z,98.32
2018-10-03T06:22:30.908Z,98.70
2018-10-03T06:23:30.895Z,99.08
2018-10-03T06:24:30.884Z,99.27
2018-10-03T06:25:30.877Z,98.22
2018-10-03T06:26:30.862Z,97.37
2018-10-03T06:27:30.850Z,97.71
2018-10-03T06:28:30.839Z,97.46
2018-10-03T06:29:30.828Z,96.46
2018-10-03T06:30:30.819Z,95.22
2018-10-03T06:31:30.806Z,94.84
2018-10-03T06:32:30.795Z,94.46
2018-10-03T06:33:30.790Z,94.84
2018-10-03T06:34:30.772Z,94.65
2018-10-03T06:35:30.760Z,94.84
2018-10-03T06:36:30.750Z,95.51
2018-10-03T06:37:30.739Z,95.98
2018-10-03T06:38:30.727Z,95.98
2018-10-03T06:39:30.783Z,95.98
2018-10-03T06:40:30.790Z,94.93
2018-10-03T06:41:30.694Z,94.36
2018-10-03T06:42:30.683Z,94.56
2018-10-03T06:43:30.671Z,94.36
2018-10-03T06:44:30.660Z,93.98
2018-10-03T06:45:30.660Z,95.03
2018-10-03T06:46:30.639Z,94.56
2018-10-03T06:47:30.627Z,94.27
2018-10-03T06:48:30.616Z,93.31
2018-10-03T06:49:30.609Z,91.88
2018-10-03T06:50:30.594Z,92.88
2018-10-03T06:51:30.581Z,93.65
2018-10-03T06:52:30.571Z,93.84
2018-10-03T06:53:30.560Z,92.02
2018-10-03T06:54:30.551Z,92.12
2018-10-03T06:55:30.537Z,91.93
2018-10-03T06:56:30.527Z,91.64
2018-10-03T06:57:30.517Z,91.93
2018-10-03T06:58:30.506Z,91.07
2018-10-03T06:59:30.494Z,90.31
2018-10-03T07:00:30.484Z,90.02
2018-10-03T07:01:30.472Z,91.07
2018-10-03T07:02:30.462Z,90.59
2018-10-03T07:03:30.452Z,90.97
2018-10-03T07:04:30.445Z,91.64
2018-10-03T07:05:30.431Z,92.41
2018-10-03T07:06:30.421Z,92.50
2018-10-03T07:07:30.409Z,90.78
2018-10-03T07:08:30.399Z,91.02
2018-10-03T07:09:30.387Z,90.35
2018-10-03T07:10:30.378Z,88.82
2018-10-03T07:11:30.365Z,88.30
2018-10-03T07:12:30.355Z,88.49
2018-10-03T07:13:30.344Z,89.64
2018-10-03T07:14:30.334Z,88.20
2018-10-03T07:15:30.321Z,88.82
2018-10-03T07:16:30.312Z,89.16
2018-10-03T07:17:30.301Z,89.54
2018-10-03T07:18:30.290Z,90.16
2018-10-03T07:19:30.277Z,90.25
2018-10-03T07:20:30.269Z,89.68
2018-10-03T07:21:30.262Z,89.20
2018-10-03T07:22:30.246Z,88.06
2018-10-03T07:23:30.236Z,88.15
2018-10-03T07:24:30.227Z,87.87
2018-10-03T07:25:30.219Z,88.44
2018-10-03T07:26:30.210Z,89.20
2018-10-03T07:27:30.193Z,89.49
2018-10-03T07:28:30.183Z,89.11
2018-10-03T07:29:30.173Z,89.68
2018-10-03T07:30:30.167Z,89.20
2018-10-03T07:31:30.151Z,89.59
2018-10-03T07:32:30.212Z,89.87
2018-10-03T07:33:30.130Z,89.49
2018-10-03T07:34:30.121Z,89.78
2018-10-03T07:35:30.108Z,89.59
2018-10-03T07:36:30.099Z,89.87
2018-10-03T07:37:30.089Z,89.39
2018-10-03T07:38:30.077Z,89.39
2018-10-03T07:39:30.066Z,88.34
2018-10-03T07:40:30.057Z,88.15
2018-10-03T07:41:30.046Z,88.54
2018-10-03T07:42:30.036Z,89.59
2018-10-03T07:43:30.024Z,90.54
2018-10-03T07:44:30.015Z,90.35
2018-10-03T07:45:30.006Z,91.50
2018-10-03T07:46:29.993Z,90.92
2018-10-03T07:47:29.983Z,90.06
2018-10-03T07:48:29.974Z,89.20
2018-10-03T07:49:29.965Z,89.01
2018-10-03T07:50:29.953Z,88.82
2018-10-03T07:51:29.945Z,89.01
2018-10-03T07:52:29.933Z,89.49
2018-10-03T07:53:29.945Z,89.11
2018-10-03T07:54:29.912Z,88.82
2018-10-03T07:55:29.901Z,88.54
2018-10-03T07:56:29.893Z,89.49
2018-10-03T07:57:29.881Z,89.87
2018-10-03T07:58:29.870Z,89.78
2018-10-03T07:59:29.859Z,89.39
2018-10-03T08:00:29.869Z,89.11
2018-10-03T08:01:29.841Z,89.49
2018-10-03T08:02:29.828Z,90.25
2018-10-03T08:03:29.817Z,90.35
2018-10-03T08:04:29.807Z,90.64
2018-10-03T08:05:29.796Z,90.73
2018-10-03T08:06:29.789Z,90.54
2018-10-03T08:07:29.776Z,90.45
2018-10-03T08:08:29.770Z,90.16
2018-10-03T08:09:29.761Z,89.97
2018-10-03T08:10:29.747Z,90.06
2018-10-03T08:11:29.733Z,89.78
2018-10-03T08:12:29.725Z,90.06
2018-10-03T08:13:29.716Z,90.06
2018-10-03T08:14:29.705Z,90.06
2018-10-03T08:15:29.694Z,90.16
2018-10-03T08:16:29.684Z,90.78
2018-10-03T08:17:29.742Z,89.53
2018-10-03T08:18:29.665Z,88.39
2018-10-03T08:19:29.651Z,89.34
2018-10-03T08:20:29.646Z,89.15
2018-10-03T08:21:29.632Z,89.25
2018-10-03T08:22:29.622Z,88.29
2018-10-03T08:23:29.610Z,89.15
2018-10-03T08:24:29.671Z,88.87
2018-10-03T08:25:29.591Z,89.15
2018-10-03T08:26:29.582Z,88.20
2018-10-03T08:27:29.571Z,87.05
2018-10-03T08:28:29.560Z,86.67
2018-10-03T08:29:29.550Z,86.80
2018-10-03T08:30:29.540Z,87.00
2018-10-03T08:31:29.529Z,86.00
2018-10-03T08:32:29.563Z,86.80
2018-10-03T08:33:29.510Z,87.00
2018-10-03T08:34:29.499Z,86.04
2018-10-03T08:35:29.489Z,86.52
2018-10-03T08:36:29.479Z,85.75
2018-10-03T08:37:29.469Z,85.47
2018-10-03T08:38:29.512Z,85.85
2018-10-03T08:39:29.449Z,85.94
2018-10-03T08:40:29.440Z,86.14
2018-10-03T08:41:29.430Z,85.75
2018-10-03T08:42:29.420Z,85.41
2018-10-03T08:43:29.410Z,84.75
2018-10-03T08:44:29.400Z,84.17
2018-10-03T08:45:29.429Z,84.55
2018-10-03T08:47:29.371Z,83.50
2018-10-03T08:48:29.361Z,84.08
2018-10-03T08:49:29.353Z,83.89
2018-10-03T08:50:29.342Z,83.98
2018-10-03T08:51:29.338Z,83.60
2018-10-03T08:52:29.322Z,83.22
2018-10-03T08:53:29.313Z,83.12
2018-10-03T08:54:29.304Z,83.22
2018-10-03T08:55:29.293Z,83.22
2018-10-03T08:56:29.284Z,83.22
2018-10-03T08:57:29.273Z,83.60
2018-10-03T08:58:29.418Z,83.79
2018-10-03T08:59:29.255Z,83.03
2018-10-03T09:00:29.248Z,82.17
2018-10-03T09:01:29.239Z,81.63
2018-10-03T09:02:29.228Z,81.92
2018-10-03T09:03:29.216Z,81.92
2018-10-03T09:04:29.207Z,81.63
2018-10-03T09:05:29.198Z,81.63
2018-10-03T09:06:29.190Z,80.87
2018-10-03T09:07:29.179Z,81.92
2018-10-03T09:08:29.177Z,81.05
2018-10-03T09:09:29.160Z,80.67
2018-10-03T09:10:29.152Z,80.48
2018-10-03T09:11:29.168Z,80.38
2018-10-03T09:12:29.133Z,80.19
2018-10-03T09:13:29.123Z,80.38
2018-10-03T09:14:29.114Z,80.19
2018-10-03T09:15:29.112Z,79.72
2018-10-03T09:16:29.096Z,80.38
2018-10-03T09:17:29.087Z,80.38
2018-10-03T09:18:29.078Z,80.48
2018-10-03T09:19:29.075Z,80.58
2018-10-03T09:20:29.059Z,81.15
2018-10-03T09:21:29.163Z,81.25
2018-10-03T09:22:29.041Z,81.92
2018-10-03T09:23:29.031Z,82.11
2018-10-03T09:24:29.023Z,81.44
2018-10-03T09:25:29.013Z,80.77
2018-10-03T09:26:29.005Z,80.38
2018-10-03T09:27:28.995Z,80.96
2018-10-03T09:28:29.070Z,80.58
2018-10-03T09:29:28.978Z,81.25
2018-10-03T09:30:28.969Z,80.96
2018-10-03T09:31:28.959Z,81.44
2018-10-03T09:32:28.951Z,81.34
2018-10-03T09:33:28.941Z,81.25
2018-10-03T09:34:28.931Z,82.49
2018-10-03T09:35:28.922Z,82.97
2018-10-03T09:36:28.915Z,83.16
2018-10-03T09:37:28.904Z,83.73
2018-10-03T09:38:28.897Z,83.93
2018-10-03T09:39:28.906Z,82.45
2018-10-03T09:40:28.879Z,83.03
2018-10-03T09:41:28.867Z,83.69
2018-10-03T09:42:28.859Z,85.32
2018-10-03T09:43:28.849Z,85.32
2018-10-03T09:44:28.887Z,83.69
2018-10-03T09:45:28.836Z,82.54
2018-10-03T09:46:28.823Z,83.69
2018-10-03T09:47:28.813Z,83.79
2018-10-03T09:48:28.803Z,84.41
2018-10-03T09:49:28.794Z,84.41
2018-10-03T09:50:28.784Z,83.16
2018-10-03T09:51:28.775Z,83.54
2018-10-03T09:52:28.766Z,82.49
2018-10-03T09:53:28.757Z,82.63
2018-10-03T09:54:28.749Z,82.06
2018-10-03T09:55:28.738Z,81.20
2018-10-03T09:56:28.730Z,80.90
2018-10-03T09:57:28.721Z,80.62
2018-10-03T09:58:28.712Z,80.27
2018-10-03T09:59:28.703Z,79.60
2018-10-03T10:00:28.783Z,79.70
2018-10-03T10:01:28.685Z,79.89
2018-10-03T10:02:28.677Z,79.41
2018-10-03T10:03:28.667Z,80.08
2018-10-03T10:04:28.658Z,81.13
2018-10-03T10:05:28.650Z,81.81
2018-10-03T10:06:28.642Z,82.57
2018-10-03T10:07:28.632Z,82.67
2018-10-03T10:08:28.623Z,82.29
2018-10-03T10:09:28.616Z,81.23
2018-10-03T10:10:28.609Z,80.76
2018-10-03T10:11:28.797Z,82.00
2018-10-03T10:12:28.590Z,82.92
2018-10-03T10:13:28.581Z,83.82
2018-10-03T10:14:28.573Z,83.44
2018-10-03T10:15:28.564Z,83.25
2018-10-03T10:16:28.556Z,83.82
2018-10-03T10:17:28.548Z,83.72
2018-10-03T10:18:28.539Z,83.25
2018-10-03T10:19:28.532Z,83.15
2018-10-03T10:20:28.523Z,83.15
2018-10-03T10:21:28.514Z,83.38
2018-10-03T10:22:28.505Z,82.14
2018-10-03T10:23:28.497Z,82.81
2018-10-03T10:24:28.489Z,82.14
2018-10-03T10:25:28.479Z,81.95
2018-10-03T10:26:28.473Z,82.04
2018-10-03T10:27:28.463Z,82.14
2018-10-03T10:28:28.456Z,82.08
2018-10-03T10:29:28.447Z,81.89
2018-10-03T10:30:28.439Z,81.51
2018-10-03T10:31:28.429Z,81.31
2018-10-03T10:32:28.660Z,81.31
2018-10-03T10:33:28.423Z,81.31
2018-10-03T10:34:28.407Z,81.41
2018-10-03T10:35:28.397Z,81.12
2018-10-03T10:36:28.390Z,81.12
2018-10-03T10:37:28.382Z,80.74
2018-10-03T10:38:28.374Z,81.22
2018-10-03T10:39:28.366Z,81.31
2018-10-03T10:40:28.541Z,82.37
2018-10-03T10:41:28.516Z,83.19
2018-10-03T10:42:28.341Z,83.19
2018-10-03T10:43:28.394Z,82.65
2018-10-03T10:44:28.327Z,82.46
2018-10-03T10:45:28.319Z,82.37
2018-10-03T10:46:28.311Z,82.56
2018-10-03T10:47:28.301Z,82.46
2018-10-03T10:48:28.294Z,83.61
2018-10-03T10:49:28.286Z,83.04
2018-10-03T10:50:28.290Z,83.67
2018-10-03T10:51:28.274Z,83.95
2018-10-03T10:52:28.260Z,85.39
2018-10-03T10:53:28.254Z,84.28
2018-10-03T10:54:28.247Z,84.09
2018-10-03T10:55:28.240Z,83.33
2018-10-03T10:56:28.229Z,83.18
2018-10-03T10:57:28.222Z,82.08
2018-10-03T10:58:28.214Z,81.84
2018-10-03T10:59:28.206Z,81.64
2018-10-03T11:00:28.198Z,81.45
2018-10-03T11:01:28.193Z,82.18
2018-10-03T11:02:28.183Z,84.09
2018-10-03T11:03:28.175Z,83.67
2018-10-03T11:04:28.173Z,84.63
2018-10-03T11:05:28.160Z,84.53
2018-10-03T11:06:28.191Z,85.39
2018-10-03T11:07:28.143Z,85.11
2018-10-03T11:08:28.138Z,83.81
2018-10-03T11:09:28.128Z,83.23
2018-10-03T11:10:28.121Z,84.19
2018-10-03T11:11:28.112Z,84.00
2018-10-03T11:12:28.105Z,83.81
2018-10-03T11:13:28.097Z,83.61
2018-10-03T11:14:28.090Z,83.33
2018-10-03T11:15:28.082Z,83.33
2018-10-03T11:16:28.072Z,83.23
2018-10-03T11:17:28.066Z,83.52
2018-10-03T11:18:28.058Z,83.91
2018-10-03T11:19:28.049Z,82.37
2018-10-03T11:20:28.042Z,82.41
2018-10-03T11:21:28.036Z,82.21
2018-10-03T11:22:28.027Z,83.23
2018-10-03T11:23:28.147Z,84.00
2018-10-03T11:24:28.166Z,84.09
2018-10-03T11:25:28.003Z,83.42
2018-10-03T11:26:27.995Z,82.94
2018-10-03T11:27:27.987Z,83.61
2018-10-03T11:28:27.979Z,82.98
2018-10-03T11:29:27.972Z,82.31
2018-10-03T11:30:27.963Z,82.41
2018-10-03T11:31:27.956Z,83.81
2018-10-03T11:32:27.959Z,83.85
2018-10-03T11:33:27.941Z,82.98
2018-10-03T11:34:27.934Z,82.03
2018-10-03T11:35:28.027Z,82.03
2018-10-03T11:36:27.920Z,81.54
2018-10-03T11:37:27.910Z,81.35
2018-10-03T11:38:27.902Z,82.03
2018-10-03T11:39:27.894Z,82.21
2018-10-03T11:40:27.887Z,81.45
2018-10-03T11:41:27.879Z,82.21
2018-10-03T11:42:27.874Z,83.37
2018-10-03T11:43:27.864Z,82.60
2018-10-03T11:44:27.856Z,82.98
2018-10-03T11:45:27.849Z,82.21
2018-10-03T11:46:27.841Z,82.41
2018-10-03T11:47:27.834Z,81.68
2018-10-03T11:48:27.827Z,81.10
2018-10-03T11:49:27.821Z,80.63
2018-10-03T11:50:27.841Z,80.43
2018-10-03T11:51:27.804Z,80.38
2018-10-03T11:52:27.797Z,79.99
2018-10-03T11:53:27.793Z,80.57
2018-10-03T11:54:27.783Z,79.27
2018-10-03T11:55:27.776Z,78.30
2018-10-03T11:56:27.768Z,78.02
2018-10-03T11:57:27.764Z,77.63
2018-10-03T11:58:27.755Z,78.98
2018-10-03T11:59:27.783Z,78.50
2018-10-03T12:00:27.740Z,78.02
2018-10-03T12:01:27.735Z,78.02
2018-10-03T12:02:27.728Z,78.02
2018-10-03T12:03:27.832Z,78.50
2018-10-03T12:04:27.713Z,78.30
2018-10-03T12:05:27.706Z,78.02
2018-10-03T12:06:27.727Z,79.07
2018-10-03T12:07:27.693Z,78.30
2018-10-03T12:08:27.684Z,78.45
2018-10-03T12:09:27.679Z,78.45
2018-10-03T12:10:27.673Z,78.45
2018-10-03T12:11:27.665Z,80.09
2018-10-03T12:12:27.659Z,80.34
2018-10-03T12:13:27.653Z,80.53
2018-10-03T12:14:27.645Z,80.73
2018-10-03T12:15:27.636Z,80.63
2018-10-03T12:16:27.633Z,81.10
2018-10-03T12:17:27.624Z,80.15
2018-10-03T12:18:27.617Z,80.53
2018-10-03T12:19:27.610Z,80.05
2018-10-03T12:20:27.603Z,80.73
2018-10-03T12:21:27.599Z,80.15
2018-10-03T12:22:27.587Z,79.99
2018-10-03T12:23:27.581Z,80.09
2018-10-03T12:24:27.576Z,79.80
2018-10-03T12:25:27.567Z,79.99
2018-10-03T12:26:27.560Z,80.19
2018-10-03T12:27:27.553Z,79.80
2018-10-03T12:28:27.548Z,80.96
2018-10-03T12:29:27.542Z,80.43
2018-10-03T12:30:27.533Z,80.24
2018-10-03T12:31:27.525Z,82.45
2018-10-03T12:32:27.519Z,82.54
2018-10-03T12:33:27.581Z,82.45
2018-10-03T12:34:27.505Z,84.08
2018-10-03T12:35:27.498Z,82.60
2018-10-03T12:36:27.489Z,83.41
2018-10-03T12:37:27.486Z,83.22
2018-10-03T12:38:27.476Z,82.84
2018-10-03T12:39:27.468Z,82.07
2018-10-03T12:40:27.513Z,81.40
2018-10-03T12:41:27.454Z,82.30
2018-10-03T12:42:27.447Z,81.20
2018-10-03T12:43:27.439Z,82.03
2018-10-03T12:44:27.432Z,82.54
2018-10-03T12:45:27.427Z,82.84
2018-10-03T12:46:27.419Z,82.74
2018-10-03T12:47:27.414Z,81.20
2018-10-03T12:48:27.404Z,81.01
2018-10-03T12:49:27.398Z,81.40
2018-10-03T12:50:27.390Z,80.19
2018-10-03T12:51:27.382Z,79.99
2018-10-03T12:52:27.375Z,80.28
2018-10-03T12:53:27.370Z,79.22
2018-10-03T12:54:27.362Z,80.15